sensor_id;sensor_type;location;lat;lon;timestamp;P1;durP1;ratioP1;P2;durP2;ratioP2
69714;SDS011;56981;53.532;49.398;2023-07-09T00:01:05;15.15;;;10.85;;
69714;SDS011;56981;53.532;49.398;2023-07-09T00:03:31;17.58;;;11.50;;
69714;SDS011;56981;53.532;49.398;2023-07-09T00:05:57;19.60;;;11.80;;
69714;SDS011;56981;53.532;49.398;2023-07-09T00:08:27;18.70;;;10.57;;
69714;SDS011;56981;53.532;49.398;2023-07-09T00:10:56;20.77;;;10.85;;
69714;SDS011;56981;53.532;49.398;2023-07-09T00:13:24;18.20;;;10.82;;
69714;SDS011;56981;53.532;49.398;2023-07-09T00:15:52;15.27;;;10.13;;
69714;SDS011;56981;53.532;49.398;2023-07-09T00:18:20;15.70;;;9.70;;
69714;SDS011;56981;53.532;49.398;2023-07-09T00:20:48;15.45;;;10.35;;
69714;SDS011;56981;53.532;49.398;2023-07-09T00:23:14;15.82;;;10.45;;
69714;SDS011;56981;53.532;49.398;2023-07-09T00:25:42;15.70;;;10.27;;
69714;SDS011;56981;53.532;49.398;2023-07-09T00:28:13;16.42;;;10.90;;
69714;SDS011;56981;53.532;49.398;2023-07-09T00:30:47;17.70;;;10.52;;
69714;SDS011;56981;53.532;49.398;2023-07-09T00:33:14;13.70;;;9.57;;
69714;SDS011;56981;53.532;49.398;2023-07-09T00:35:41;19.83;;;9.57;;
69714;SDS011;56981;53.532;49.398;2023-07-09T00:38:12;14.75;;;10.07;;
69714;SDS011;56981;53.532;49.398;2023-07-09T00:40:45;14.73;;;9.75;;
69714;SDS011;56981;53.532;49.398;2023-07-09T00:43:13;15.25;;;10.10;;
69714;SDS011;56981;53.532;49.398;2023-07-09T00:45:41;15.63;;;9.93;;
69714;SDS011;56981;53.532;49.398;2023-07-09T00:48:11;14.68;;;9.63;;
69714;SDS011;56981;53.532;49.398;2023-07-09T00:50:50;16.98;;;10.40;;
69714;SDS011;56981;53.532;49.398;2023-07-09T00:53:20;13.13;;;9.85;;
69714;SDS011;56981;53.532;49.398;2023-07-09T00:55:53;16.25;;;9.50;;
69714;SDS011;56981;53.532;49.398;2023-07-09T00:58:25;17.20;;;9.88;;
69714;SDS011;56981;53.532;49.398;2023-07-09T01:00:59;15.48;;;9.15;;
69714;SDS011;56981;53.532;49.398;2023-07-09T01:03:54;19.83;;;10.20;;
69714;SDS011;56981;53.532;49.398;2023-07-09T01:06:25;15.00;;;9.50;;
69714;SDS011;56981;53.532;49.398;2023-07-09T01:08:58;18.60;;;9.85;;
69714;SDS011;56981;53.532;49.398;2023-07-09T01:11:26;16.13;;;9.88;;
69714;SDS011;56981;53.532;49.398;2023-07-09T01:14:00;14.15;;;9.90;;
69714;SDS011;56981;53.532;49.398;2023-07-09T01:16:32;16.38;;;10.23;;
69714;SDS011;56981;53.532;49.398;2023-07-09T01:19:01;13.73;;;10.77;;
69714;SDS011;56981;53.532;49.398;2023-07-09T01:21:27;15.13;;;9.07;;
69714;SDS011;56981;53.532;49.398;2023-07-09T01:23:54;13.68;;;9.32;;
69714;SDS011;56981;53.532;49.398;2023-07-09T01:26:22;14.48;;;9.43;;
69714;SDS011;56981;53.532;49.398;2023-07-09T01:28:50;14.55;;;9.15;;
69714;SDS011;56981;53.532;49.398;2023-07-09T01:31:18;16.67;;;9.23;;
69714;SDS011;56981;53.532;49.398;2023-07-09T01:33:46;13.73;;;9.35;;
69714;SDS011;56981;53.532;49.398;2023-07-09T01:36:13;15.75;;;9.23;;
69714;SDS011;56981;53.532;49.398;2023-07-09T01:41:09;13.82;;;8.52;;
69714;SDS011;56981;53.532;49.398;2023-07-09T01:43:39;13.57;;;8.90;;
69714;SDS011;56981;53.532;49.398;2023-07-09T01:46:07;11.77;;;8.20;;
69714;SDS011;56981;53.532;49.398;2023-07-09T01:48:34;12.70;;;9.38;;
69714;SDS011;56981;53.532;49.398;2023-07-09T01:51:07;13.75;;;9.38;;
69714;SDS011;56981;53.532;49.398;2023-07-09T01:53:34;12.07;;;8.70;;
69714;SDS011;56981;53.532;49.398;2023-07-09T01:56:03;15.13;;;9.10;;
69714;SDS011;56981;53.532;49.398;2023-07-09T01:58:29;14.27;;;8.75;;
69714;SDS011;56981;53.532;49.398;2023-07-09T02:00:57;15.23;;;9.05;;
69714;SDS011;56981;53.532;49.398;2023-07-09T02:03:24;13.65;;;8.95;;
69714;SDS011;56981;53.532;49.398;2023-07-09T02:05:53;14.93;;;9.30;;
69714;SDS011;56981;53.532;49.398;2023-07-09T02:08:20;11.05;;;8.90;;
69714;SDS011;56981;53.532;49.398;2023-07-09T02:10:50;13.10;;;8.80;;
69714;SDS011;56981;53.532;49.398;2023-07-09T02:13:16;14.00;;;9.48;;
69714;SDS011;56981;53.532;49.398;2023-07-09T02:15:43;14.52;;;9.40;;
69714;SDS011;56981;53.532;49.398;2023-07-09T02:18:10;15.75;;;9.35;;
69714;SDS011;56981;53.532;49.398;2023-07-09T02:20:37;12.88;;;8.82;;
69714;SDS011;56981;53.532;49.398;2023-07-09T02:23:03;17.83;;;10.73;;
69714;SDS011;56981;53.532;49.398;2023-07-09T02:25:31;15.23;;;10.40;;
69714;SDS011;56981;53.532;49.398;2023-07-09T02:27:57;16.00;;;9.30;;
69714;SDS011;56981;53.532;49.398;2023-07-09T02:30:23;15.52;;;9.48;;
69714;SDS011;56981;53.532;49.398;2023-07-09T02:32:50;17.65;;;10.00;;
69714;SDS011;56981;53.532;49.398;2023-07-09T02:35:22;15.80;;;9.93;;
69714;SDS011;56981;53.532;49.398;2023-07-09T02:37:49;17.17;;;9.07;;
69714;SDS011;56981;53.532;49.398;2023-07-09T02:40:15;15.18;;;10.15;;
69714;SDS011;56981;53.532;49.398;2023-07-09T02:42:42;13.43;;;9.02;;
69714;SDS011;56981;53.532;49.398;2023-07-09T02:45:08;12.27;;;9.10;;
69714;SDS011;56981;53.532;49.398;2023-07-09T02:47:35;14.00;;;8.98;;
69714;SDS011;56981;53.532;49.398;2023-07-09T02:50:02;17.98;;;9.98;;
69714;SDS011;56981;53.532;49.398;2023-07-09T02:52:29;16.92;;;9.77;;
69714;SDS011;56981;53.532;49.398;2023-07-09T02:54:55;14.93;;;10.23;;
69714;SDS011;56981;53.532;49.398;2023-07-09T02:57:23;13.20;;;10.40;;
69714;SDS011;56981;53.532;49.398;2023-07-09T02:59:49;17.15;;;10.65;;
69714;SDS011;56981;53.532;49.398;2023-07-09T03:02:15;15.25;;;10.07;;
69714;SDS011;56981;53.532;49.398;2023-07-09T03:04:41;16.00;;;10.15;;
69714;SDS011;56981;53.532;49.398;2023-07-09T03:07:07;15.70;;;9.98;;
69714;SDS011;56981;53.532;49.398;2023-07-09T03:09:34;14.30;;;9.82;;
69714;SDS011;56981;53.532;49.398;2023-07-09T03:12:00;17.33;;;10.20;;
69714;SDS011;56981;53.532;49.398;2023-07-09T03:14:26;14.63;;;9.32;;
69714;SDS011;56981;53.532;49.398;2023-07-09T03:16:52;18.67;;;10.15;;
69714;SDS011;56981;53.532;49.398;2023-07-09T03:19:19;15.07;;;10.07;;
69714;SDS011;56981;53.532;49.398;2023-07-09T03:21:45;16.23;;;9.48;;
69714;SDS011;56981;53.532;49.398;2023-07-09T03:24:11;13.68;;;9.48;;
69714;SDS011;56981;53.532;49.398;2023-07-09T03:26:40;14.13;;;9.73;;
69714;SDS011;56981;53.532;49.398;2023-07-09T03:29:06;15.68;;;8.70;;
69714;SDS011;56981;53.532;49.398;2023-07-09T03:31:33;12.35;;;8.80;;
69714;SDS011;56981;53.532;49.398;2023-07-09T03:34:02;15.30;;;8.82;;
69714;SDS011;56981;53.532;49.398;2023-07-09T03:36:28;15.43;;;9.07;;
69714;SDS011;56981;53.532;49.398;2023-07-09T03:38:54;13.05;;;8.63;;
69714;SDS011;56981;53.532;49.398;2023-07-09T03:41:20;12.13;;;8.05;;
69714;SDS011;56981;53.532;49.398;2023-07-09T03:43:47;11.75;;;8.35;;
69714;SDS011;56981;53.532;49.398;2023-07-09T03:46:15;12.43;;;8.85;;
69714;SDS011;56981;53.532;49.398;2023-07-09T03:48:41;11.32;;;8.38;;
69714;SDS011;56981;53.532;49.398;2023-07-09T03:51:08;13.93;;;8.10;;
69714;SDS011;56981;53.532;49.398;2023-07-09T03:53:34;14.13;;;8.30;;
69714;SDS011;56981;53.532;49.398;2023-07-09T03:56:00;10.60;;;7.90;;
69714;SDS011;56981;53.532;49.398;2023-07-09T03:58:27;10.93;;;8.18;;
69714;SDS011;56981;53.532;49.398;2023-07-09T04:00:54;9.32;;;7.85;;
69714;SDS011;56981;53.532;49.398;2023-07-09T04:03:21;10.85;;;8.43;;
69714;SDS011;56981;53.532;49.398;2023-07-09T04:05:48;11.20;;;8.05;;
69714;SDS011;56981;53.532;49.398;2023-07-09T04:08:14;12.57;;;7.90;;
69714;SDS011;56981;53.532;49.398;2023-07-09T04:10:40;12.15;;;8.13;;
69714;SDS011;56981;53.532;49.398;2023-07-09T04:13:07;12.15;;;8.30;;
69714;SDS011;56981;53.532;49.398;2023-07-09T04:15:34;11.52;;;8.10;;
69714;SDS011;56981;53.532;49.398;2023-07-09T04:18:00;9.95;;;8.00;;
69714;SDS011;56981;53.532;49.398;2023-07-09T04:20:27;11.10;;;8.50;;
69714;SDS011;56981;53.532;49.398;2023-07-09T04:22:53;10.02;;;8.23;;
69714;SDS011;56981;53.532;49.398;2023-07-09T04:25:19;11.73;;;7.88;;
69714;SDS011;56981;53.532;49.398;2023-07-09T04:27:46;13.38;;;8.43;;
69714;SDS011;56981;53.532;49.398;2023-07-09T04:30:12;10.30;;;8.07;;
69714;SDS011;56981;53.532;49.398;2023-07-09T04:32:41;10.55;;;7.78;;
69714;SDS011;56981;53.532;49.398;2023-07-09T04:35:09;9.52;;;8.25;;
69714;SDS011;56981;53.532;49.398;2023-07-09T04:37:37;11.68;;;7.97;;
69714;SDS011;56981;53.532;49.398;2023-07-09T04:40:04;13.23;;;8.02;;
69714;SDS011;56981;53.532;49.398;2023-07-09T04:42:32;12.10;;;7.90;;
69714;SDS011;56981;53.532;49.398;2023-07-09T04:44:59;10.02;;;8.00;;
69714;SDS011;56981;53.532;49.398;2023-07-09T04:47:25;15.90;;;11.95;;
69714;SDS011;56981;53.532;49.398;2023-07-09T04:49:51;10.25;;;8.55;;
69714;SDS011;56981;53.532;49.398;2023-07-09T04:52:17;11.02;;;8.10;;
69714;SDS011;56981;53.532;49.398;2023-07-09T04:54:44;10.82;;;8.52;;
69714;SDS011;56981;53.532;49.398;2023-07-09T04:57:11;10.73;;;8.50;;
69714;SDS011;56981;53.532;49.398;2023-07-09T04:59:38;12.32;;;8.13;;
69714;SDS011;56981;53.532;49.398;2023-07-09T05:02:04;10.73;;;8.05;;
69714;SDS011;56981;53.532;49.398;2023-07-09T05:04:31;8.63;;;7.75;;
69714;SDS011;56981;53.532;49.398;2023-07-09T05:06:57;8.60;;;7.30;;
69714;SDS011;56981;53.532;49.398;2023-07-09T05:09:23;9.48;;;7.80;;
69714;SDS011;56981;53.532;49.398;2023-07-09T05:11:50;12.23;;;9.30;;
69714;SDS011;56981;53.532;49.398;2023-07-09T05:14:17;9.95;;;8.57;;
69714;SDS011;56981;53.532;49.398;2023-07-09T05:16:44;9.27;;;7.57;;
69714;SDS011;56981;53.532;49.398;2023-07-09T05:19:11;9.88;;;7.85;;
69714;SDS011;56981;53.532;49.398;2023-07-09T05:21:37;8.15;;;7.30;;
69714;SDS011;56981;53.532;49.398;2023-07-09T05:24:04;10.32;;;7.40;;
69714;SDS011;56981;53.532;49.398;2023-07-09T05:26:31;10.38;;;7.95;;
69714;SDS011;56981;53.532;49.398;2023-07-09T05:28:57;13.07;;;11.43;;
69714;SDS011;56981;53.532;49.398;2023-07-09T05:31:24;11.45;;;8.18;;
69714;SDS011;56981;53.532;49.398;2023-07-09T05:33:50;8.45;;;7.25;;
69714;SDS011;56981;53.532;49.398;2023-07-09T05:36:16;9.43;;;7.50;;
69714;SDS011;56981;53.532;49.398;2023-07-09T05:38:44;10.30;;;7.05;;
69714;SDS011;56981;53.532;49.398;2023-07-09T05:41:15;8.20;;;7.32;;
69714;SDS011;56981;53.532;49.398;2023-07-09T05:43:42;9.15;;;8.07;;
69714;SDS011;56981;53.532;49.398;2023-07-09T05:46:10;10.57;;;7.70;;
69714;SDS011;56981;53.532;49.398;2023-07-09T05:48:36;8.35;;;7.00;;
69714;SDS011;56981;53.532;49.398;2023-07-09T05:51:02;11.25;;;7.88;;
69714;SDS011;56981;53.532;49.398;2023-07-09T05:53:29;8.27;;;7.47;;
69714;SDS011;56981;53.532;49.398;2023-07-09T05:55:57;10.13;;;7.30;;
69714;SDS011;56981;53.532;49.398;2023-07-09T05:58:23;11.20;;;7.88;;
69714;SDS011;56981;53.532;49.398;2023-07-09T06:00:53;11.32;;;7.38;;
69714;SDS011;56981;53.532;49.398;2023-07-09T06:03:22;8.75;;;7.47;;
69714;SDS011;56981;53.532;49.398;2023-07-09T06:05:49;8.50;;;6.95;;
69714;SDS011;56981;53.532;49.398;2023-07-09T06:08:16;9.38;;;7.40;;
69714;SDS011;56981;53.532;49.398;2023-07-09T06:10:55;9.73;;;7.60;;
69714;SDS011;56981;53.532;49.398;2023-07-09T06:13:23;9.13;;;7.28;;
69714;SDS011;56981;53.532;49.398;2023-07-09T06:15:50;10.50;;;7.18;;
69714;SDS011;56981;53.532;49.398;2023-07-09T06:18:18;10.10;;;8.00;;
69714;SDS011;56981;53.532;49.398;2023-07-09T06:20:48;9.20;;;7.35;;
69714;SDS011;56981;53.532;49.398;2023-07-09T06:23:19;8.60;;;7.68;;
69714;SDS011;56981;53.532;49.398;2023-07-09T06:25:46;10.32;;;7.78;;
69714;SDS011;56981;53.532;49.398;2023-07-09T06:28:14;12.00;;;7.60;;
69714;SDS011;56981;53.532;49.398;2023-07-09T06:30:41;7.60;;;6.80;;
69714;SDS011;56981;53.532;49.398;2023-07-09T06:33:07;7.80;;;6.90;;
69714;SDS011;56981;53.532;49.398;2023-07-09T06:35:33;9.27;;;7.60;;
69714;SDS011;56981;53.532;49.398;2023-07-09T06:37:59;8.93;;;7.35;;
69714;SDS011;56981;53.532;49.398;2023-07-09T06:40:26;8.07;;;7.13;;
69714;SDS011;56981;53.532;49.398;2023-07-09T06:42:52;8.98;;;7.20;;
69714;SDS011;56981;53.532;49.398;2023-07-09T06:45:18;9.50;;;7.30;;
69714;SDS011;56981;53.532;49.398;2023-07-09T06:47:45;7.90;;;7.10;;
69714;SDS011;56981;53.532;49.398;2023-07-09T06:50:11;8.60;;;6.93;;
69714;SDS011;56981;53.532;49.398;2023-07-09T06:52:38;8.63;;;7.00;;
69714;SDS011;56981;53.532;49.398;2023-07-09T06:55:05;12.50;;;7.03;;
69714;SDS011;56981;53.532;49.398;2023-07-09T06:57:31;11.88;;;7.50;;
69714;SDS011;56981;53.532;49.398;2023-07-09T06:59:57;8.38;;;7.25;;
69714;SDS011;56981;53.532;49.398;2023-07-09T07:02:24;9.57;;;6.82;;
69714;SDS011;56981;53.532;49.398;2023-07-09T07:04:50;8.15;;;7.35;;
69714;SDS011;56981;53.532;49.398;2023-07-09T07:07:16;11.02;;;7.18;;
69714;SDS011;56981;53.532;49.398;2023-07-09T07:09:43;7.57;;;6.70;;
69714;SDS011;56981;53.532;49.398;2023-07-09T07:12:09;7.88;;;6.82;;
69714;SDS011;56981;53.532;49.398;2023-07-09T07:14:35;10.35;;;7.30;;
69714;SDS011;56981;53.532;49.398;2023-07-09T07:17:01;10.50;;;7.40;;
69714;SDS011;56981;53.532;49.398;2023-07-09T07:19:28;9.25;;;7.05;;
69714;SDS011;56981;53.532;49.398;2023-07-09T07:21:54;7.93;;;6.95;;
69714;SDS011;56981;53.532;49.398;2023-07-09T07:24:20;12.40;;;7.60;;
69714;SDS011;56981;53.532;49.398;2023-07-09T07:26:46;8.20;;;6.93;;
69714;SDS011;56981;53.532;49.398;2023-07-09T07:29:13;8.07;;;6.90;;
69714;SDS011;56981;53.532;49.398;2023-07-09T07:31:39;8.48;;;7.13;;
69714;SDS011;56981;53.532;49.398;2023-07-09T07:34:05;10.25;;;7.85;;
69714;SDS011;56981;53.532;49.398;2023-07-09T07:36:31;9.10;;;7.20;;
69714;SDS011;56981;53.532;49.398;2023-07-09T07:38:58;10.07;;;7.90;;
69714;SDS011;56981;53.532;49.398;2023-07-09T07:41:24;12.15;;;7.43;;
69714;SDS011;56981;53.532;49.398;2023-07-09T07:43:51;7.70;;;6.90;;
69714;SDS011;56981;53.532;49.398;2023-07-09T07:46:17;11.65;;;7.53;;
69714;SDS011;56981;53.532;49.398;2023-07-09T07:48:43;10.43;;;7.13;;
69714;SDS011;56981;53.532;49.398;2023-07-09T07:51:10;9.30;;;7.25;;
69714;SDS011;56981;53.532;49.398;2023-07-09T07:53:36;8.30;;;7.22;;
69714;SDS011;56981;53.532;49.398;2023-07-09T07:56:02;9.32;;;7.03;;
69714;SDS011;56981;53.532;49.398;2023-07-09T07:58:29;10.38;;;7.60;;
69714;SDS011;56981;53.532;49.398;2023-07-09T08:00:56;11.57;;;8.07;;
69714;SDS011;56981;53.532;49.398;2023-07-09T08:03:23;7.95;;;7.07;;
69714;SDS011;56981;53.532;49.398;2023-07-09T08:05:50;9.27;;;6.75;;
69714;SDS011;56981;53.532;49.398;2023-07-09T08:08:17;8.52;;;6.78;;
69714;SDS011;56981;53.532;49.398;2023-07-09T08:10:43;10.90;;;7.40;;
69714;SDS011;56981;53.532;49.398;2023-07-09T08:13:09;8.15;;;7.32;;
69714;SDS011;56981;53.532;49.398;2023-07-09T08:15:36;9.00;;;6.97;;
69714;SDS011;56981;53.532;49.398;2023-07-09T08:18:02;7.80;;;7.00;;
69714;SDS011;56981;53.532;49.398;2023-07-09T08:20:28;8.70;;;7.32;;
69714;SDS011;56981;53.532;49.398;2023-07-09T08:22:54;9.30;;;7.00;;
69714;SDS011;56981;53.532;49.398;2023-07-09T08:25:20;8.77;;;7.03;;
69714;SDS011;56981;53.532;49.398;2023-07-09T08:27:49;10.00;;;6.70;;
69714;SDS011;56981;53.532;49.398;2023-07-09T08:30:15;7.82;;;7.03;;
69714;SDS011;56981;53.532;49.398;2023-07-09T08:32:41;10.40;;;7.05;;
69714;SDS011;56981;53.532;49.398;2023-07-09T08:35:08;9.23;;;7.53;;
69714;SDS011;56981;53.532;49.398;2023-07-09T08:37:36;8.32;;;6.85;;
69714;SDS011;56981;53.532;49.398;2023-07-09T08:40:02;8.88;;;7.20;;
69714;SDS011;56981;53.532;49.398;2023-07-09T08:42:29;8.80;;;6.93;;
69714;SDS011;56981;53.532;49.398;2023-07-09T08:48:07;10.52;;;7.32;;
69714;SDS011;56981;53.532;49.398;2023-07-09T08:53:20;14.95;;;8.00;;
69714;SDS011;56981;53.532;49.398;2023-07-09T08:55:53;8.68;;;6.90;;
69714;SDS011;56981;53.532;49.398;2023-07-09T08:58:24;8.30;;;7.05;;
69714;SDS011;56981;53.532;49.398;2023-07-09T09:00:54;11.65;;;7.47;;
69714;SDS011;56981;53.532;49.398;2023-07-09T09:06:28;9.48;;;7.32;;
69714;SDS011;56981;53.532;49.398;2023-07-09T09:11:45;9.73;;;7.13;;
69714;SDS011;56981;53.532;49.398;2023-07-09T09:14:28;8.07;;;7.28;;
69714;SDS011;56981;53.532;49.398;2023-07-09T09:16:58;10.98;;;7.00;;
69714;SDS011;56981;53.532;49.398;2023-07-09T09:19:27;10.60;;;7.63;;
69714;SDS011;56981;53.532;49.398;2023-07-09T09:22:04;9.95;;;6.93;;
69714;SDS011;56981;53.532;49.398;2023-07-09T09:24:38;11.88;;;7.43;;
69714;SDS011;56981;53.532;49.398;2023-07-09T09:27:25;10.15;;;7.40;;
69714;SDS011;56981;53.532;49.398;2023-07-09T09:29:51;10.90;;;7.40;;
69714;SDS011;56981;53.532;49.398;2023-07-09T09:32:28;9.88;;;6.93;;
69714;SDS011;56981;53.532;49.398;2023-07-09T09:34:56;8.48;;;6.40;;
69714;SDS011;56981;53.532;49.398;2023-07-09T09:37:24;10.75;;;7.30;;
69714;SDS011;56981;53.532;49.398;2023-07-09T09:40:00;14.43;;;7.32;;
69714;SDS011;56981;53.532;49.398;2023-07-09T09:42:26;10.98;;;7.22;;
69714;SDS011;56981;53.532;49.398;2023-07-09T09:44:53;13.20;;;8.75;;
69714;SDS011;56981;53.532;49.398;2023-07-09T09:47:20;15.27;;;8.63;;
69714;SDS011;56981;53.532;49.398;2023-07-09T09:49:48;13.48;;;8.38;;
69714;SDS011;56981;53.532;49.398;2023-07-09T09:52:16;11.43;;;8.00;;
69714;SDS011;56981;53.532;49.398;2023-07-09T09:54:48;14.93;;;9.63;;
69714;SDS011;56981;53.532;49.398;2023-07-09T09:57:19;11.70;;;8.43;;
69714;SDS011;56981;53.532;49.398;2023-07-09T09:59:49;14.23;;;8.07;;
69714;SDS011;56981;53.532;49.398;2023-07-09T10:02:22;9.00;;;7.82;;
69714;SDS011;56981;53.532;49.398;2023-07-09T10:04:51;9.35;;;8.07;;
69714;SDS011;56981;53.532;49.398;2023-07-09T10:09:52;10.55;;;8.18;;
69714;SDS011;56981;53.532;49.398;2023-07-09T10:15:24;10.45;;;7.93;;
69714;SDS011;56981;53.532;49.398;2023-07-09T10:18:48;11.48;;;8.75;;
69714;SDS011;56981;53.532;49.398;2023-07-09T10:21:03;12.82;;;9.13;;
69714;SDS011;56981;53.532;49.398;2023-07-09T10:23:37;13.30;;;8.68;;
69714;SDS011;56981;53.532;49.398;2023-07-09T10:31:18;14.95;;;9.77;;
69714;SDS011;56981;53.532;49.398;2023-07-09T10:33:48;11.35;;;8.23;;
69714;SDS011;56981;53.532;49.398;2023-07-09T10:39:02;11.05;;;8.57;;
69714;SDS011;56981;53.532;49.398;2023-07-09T10:41:33;12.27;;;8.07;;
69714;SDS011;56981;53.532;49.398;2023-07-09T10:44:14;10.98;;;7.82;;
69714;SDS011;56981;53.532;49.398;2023-07-09T10:46:53;12.43;;;9.32;;
69714;SDS011;56981;53.532;49.398;2023-07-09T10:49:23;11.15;;;8.50;;
69714;SDS011;56981;53.532;49.398;2023-07-09T10:52:02;9.65;;;7.90;;
69714;SDS011;56981;53.532;49.398;2023-07-09T10:54:35;9.45;;;7.85;;
69714;SDS011;56981;53.532;49.398;2023-07-09T10:57:11;12.25;;;9.02;;
69714;SDS011;56981;53.532;49.398;2023-07-09T11:00:07;12.40;;;8.35;;
69714;SDS011;56981;53.532;49.398;2023-07-09T11:02:41;13.27;;;8.80;;
69714;SDS011;56981;53.532;49.398;2023-07-09T11:05:08;14.00;;;8.68;;
69714;SDS011;56981;53.532;49.398;2023-07-09T11:07:51;11.40;;;8.25;;
69714;SDS011;56981;53.532;49.398;2023-07-09T11:10:30;10.65;;;8.32;;
69714;SDS011;56981;53.532;49.398;2023-07-09T11:13:45;10.85;;;8.18;;
69714;SDS011;56981;53.532;49.398;2023-07-09T11:15:55;12.48;;;8.65;;
69714;SDS011;56981;53.532;49.398;2023-07-09T11:18:23;13.93;;;8.35;;
69714;SDS011;56981;53.532;49.398;2023-07-09T11:21:03;11.68;;;8.05;;
69714;SDS011;56981;53.532;49.398;2023-07-09T11:26:24;9.45;;;7.38;;
69714;SDS011;56981;53.532;49.398;2023-07-09T11:28:53;10.30;;;8.23;;
69714;SDS011;56981;53.532;49.398;2023-07-09T11:31:23;13.38;;;8.35;;
69714;SDS011;56981;53.532;49.398;2023-07-09T11:34:06;11.30;;;8.10;;
69714;SDS011;56981;53.532;49.398;2023-07-09T11:36:33;10.90;;;7.57;;
69714;SDS011;56981;53.532;49.398;2023-07-09T11:39:01;11.93;;;8.45;;
69714;SDS011;56981;53.532;49.398;2023-07-09T11:41:36;12.30;;;8.00;;
69714;SDS011;56981;53.532;49.398;2023-07-09T11:44:20;11.63;;;8.30;;
69714;SDS011;56981;53.532;49.398;2023-07-09T11:49:15;15.07;;;9.65;;
69714;SDS011;56981;53.532;49.398;2023-07-09T11:51:45;21.50;;;12.43;;
69714;SDS011;56981;53.532;49.398;2023-07-09T11:54:15;14.95;;;10.15;;
69714;SDS011;56981;53.532;49.398;2023-07-09T11:56:52;13.30;;;10.23;;
69714;SDS011;56981;53.532;49.398;2023-07-09T11:59:20;14.05;;;9.40;;
69714;SDS011;56981;53.532;49.398;2023-07-09T12:01:46;10.30;;;8.23;;
69714;SDS011;56981;53.532;49.398;2023-07-09T12:04:15;13.90;;;8.70;;
69714;SDS011;56981;53.532;49.398;2023-07-09T12:06:42;12.15;;;7.72;;
69714;SDS011;56981;53.532;49.398;2023-07-09T12:09:17;15.13;;;7.82;;
69714;SDS011;56981;53.532;49.398;2023-07-09T12:11:45;11.88;;;7.70;;
69714;SDS011;56981;53.532;49.398;2023-07-09T12:14:18;9.80;;;7.53;;
69714;SDS011;56981;53.532;49.398;2023-07-09T12:16:47;12.48;;;7.70;;
69714;SDS011;56981;53.532;49.398;2023-07-09T12:19:17;13.18;;;7.80;;
69714;SDS011;56981;53.532;49.398;2023-07-09T12:21:45;10.75;;;7.53;;
69714;SDS011;56981;53.532;49.398;2023-07-09T12:26:53;13.35;;;8.45;;
69714;SDS011;56981;53.532;49.398;2023-07-09T12:29:24;15.13;;;8.20;;
69714;SDS011;56981;53.532;49.398;2023-07-09T12:31:55;13.52;;;8.05;;
69714;SDS011;56981;53.532;49.398;2023-07-09T12:34:23;10.35;;;8.23;;
69714;SDS011;56981;53.532;49.398;2023-07-09T12:36:51;11.70;;;8.02;;
69714;SDS011;56981;53.532;49.398;2023-07-09T12:39:22;13.10;;;8.35;;
69714;SDS011;56981;53.532;49.398;2023-07-09T12:41:53;12.23;;;8.00;;
69714;SDS011;56981;53.532;49.398;2023-07-09T12:44:22;12.07;;;8.75;;
69714;SDS011;56981;53.532;49.398;2023-07-09T12:46:51;12.05;;;8.43;;
69714;SDS011;56981;53.532;49.398;2023-07-09T12:49:22;9.95;;;7.30;;
69714;SDS011;56981;53.532;49.398;2023-07-09T12:51:56;10.52;;;7.85;;
69714;SDS011;56981;53.532;49.398;2023-07-09T12:54:24;12.48;;;8.18;;
69714;SDS011;56981;53.532;49.398;2023-07-09T12:56:51;10.73;;;7.25;;
69714;SDS011;56981;53.532;49.398;2023-07-09T12:59:22;14.38;;;7.82;;
69714;SDS011;56981;53.532;49.398;2023-07-09T13:01:49;12.38;;;7.93;;
69714;SDS011;56981;53.532;49.398;2023-07-09T13:04:22;15.30;;;8.45;;
69714;SDS011;56981;53.532;49.398;2023-07-09T13:06:53;13.30;;;8.00;;
69714;SDS011;56981;53.532;49.398;2023-07-09T13:09:25;14.73;;;8.85;;
69714;SDS011;56981;53.532;49.398;2023-07-09T13:11:53;15.05;;;8.30;;
69714;SDS011;56981;53.532;49.398;2023-07-09T13:14:22;13.27;;;7.93;;
69714;SDS011;56981;53.532;49.398;2023-07-09T13:17:05;12.55;;;7.88;;
69714;SDS011;56981;53.532;49.398;2023-07-09T13:19:34;13.10;;;7.47;;
69714;SDS011;56981;53.532;49.398;2023-07-09T13:22:01;12.38;;;8.30;;
69714;SDS011;56981;53.532;49.398;2023-07-09T13:24:30;11.48;;;7.85;;
69714;SDS011;56981;53.532;49.398;2023-07-09T13:27:01;10.15;;;8.63;;
69714;SDS011;56981;53.532;49.398;2023-07-09T13:29:27;11.98;;;7.93;;
69714;SDS011;56981;53.532;49.398;2023-07-09T13:31:54;12.25;;;7.65;;
69714;SDS011;56981;53.532;49.398;2023-07-09T13:34:24;13.40;;;8.40;;
69714;SDS011;56981;53.532;49.398;2023-07-09T13:36:53;11.80;;;7.82;;
69714;SDS011;56981;53.532;49.398;2023-07-09T13:39:22;14.38;;;8.43;;
69714;SDS011;56981;53.532;49.398;2023-07-09T13:41:50;13.05;;;8.13;;
69714;SDS011;56981;53.532;49.398;2023-07-09T13:44:23;11.95;;;7.85;;
69714;SDS011;56981;53.532;49.398;2023-07-09T13:46:52;11.02;;;8.48;;
69714;SDS011;56981;53.532;49.398;2023-07-09T13:49:21;12.45;;;7.60;;
69714;SDS011;56981;53.532;49.398;2023-07-09T13:51:50;11.65;;;8.52;;
69714;SDS011;56981;53.532;49.398;2023-07-09T13:54:21;12.93;;;7.47;;
69714;SDS011;56981;53.532;49.398;2023-07-09T13:56:57;10.43;;;7.78;;
69714;SDS011;56981;53.532;49.398;2023-07-09T13:59:24;13.68;;;8.48;;
69714;SDS011;56981;53.532;49.398;2023-07-09T14:01:52;13.60;;;7.78;;
69714;SDS011;56981;53.532;49.398;2023-07-09T14:04:21;14.40;;;9.07;;
69714;SDS011;56981;53.532;49.398;2023-07-09T14:06:48;14.27;;;8.05;;
69714;SDS011;56981;53.532;49.398;2023-07-09T14:09:14;12.80;;;8.10;;
69714;SDS011;56981;53.532;49.398;2023-07-09T14:11:42;11.63;;;7.97;;
69714;SDS011;56981;53.532;49.398;2023-07-09T14:14:25;11.20;;;7.80;;
69714;SDS011;56981;53.532;49.398;2023-07-09T14:16:56;105.13;;;11.98;;
69714;SDS011;56981;53.532;49.398;2023-07-09T14:19:22;86.47;;;10.27;;
69714;SDS011;56981;53.532;49.398;2023-07-09T14:21:50;13.30;;;5.18;;
69714;SDS011;56981;53.532;49.398;2023-07-09T14:29:22;10.52;;;3.63;;
69714;SDS011;56981;53.532;49.398;2023-07-09T14:31:49;6.50;;;2.72;;
69714;SDS011;56981;53.532;49.398;2023-07-09T14:34:21;6.65;;;2.80;;
69714;SDS011;56981;53.532;49.398;2023-07-09T14:36:53;6.75;;;2.72;;
69714;SDS011;56981;53.532;49.398;2023-07-09T14:39:21;5.57;;;3.17;;
69714;SDS011;56981;53.532;49.398;2023-07-09T14:41:48;9.05;;;4.53;;
69714;SDS011;56981;53.532;49.398;2023-07-09T14:44:18;9.45;;;5.25;;
69714;SDS011;56981;53.532;49.398;2023-07-09T14:46:51;7.45;;;6.00;;
69714;SDS011;56981;53.532;49.398;2023-07-09T14:49:19;8.52;;;5.63;;
69714;SDS011;56981;53.532;49.398;2023-07-09T14:51:46;4.53;;;3.78;;
69714;SDS011;56981;53.532;49.398;2023-07-09T14:56:47;6.07;;;5.00;;
69714;SDS011;56981;53.532;49.398;2023-07-09T14:59:14;11.13;;;8.88;;
69714;SDS011;56981;53.532;49.398;2023-07-09T15:01:40;7.47;;;6.38;;
69714;SDS011;56981;53.532;49.398;2023-07-09T15:06:49;8.23;;;6.13;;
69714;SDS011;56981;53.532;49.398;2023-07-09T15:09:20;7.07;;;4.35;;
69714;SDS011;56981;53.532;49.398;2023-07-09T15:11:48;5.78;;;4.07;;
69714;SDS011;56981;53.532;49.398;2023-07-09T15:14:17;7.45;;;4.60;;
69714;SDS011;56981;53.532;49.398;2023-07-09T15:16:43;6.85;;;5.18;;
69714;SDS011;56981;53.532;49.398;2023-07-09T15:19:12;5.63;;;4.82;;